Terminal Aerodrome Forecast
Issued by NWS

Home | Current Version | Previous Version | Text Only | Print | Product List | Glossary On
Versions: 1 2 3 4 5 6 7 8 9 10 11 12 13 14 15 16 17 18
000
FTUS44 KBMX 311557 AAA
TAFTOI
TAF AMD
KTOI 311557Z 3116/0112 07010KT P6SM SCT030
     FM311900 06010G15KT P6SM VCTS SCT050CB
     FM010200 05002KT P6SM SCT050=

USA.gov is the U.S. government's official web portal to all federal, state and local government web resources and services.